createdAt,value
2022-12-29T00:02:44.872Z,1.08
2022-12-29T00:06:53.613Z,3.03
2022-12-29T00:11:00.275Z,0.80
2022-12-29T00:15:27.013Z,0.80
2022-12-29T00:19:52.642Z,1.40
2022-12-29T00:24:18.110Z,2.00
2022-12-29T00:28:43.652Z,1.20
2022-12-29T00:33:10.182Z,1.30
2022-12-29T00:37:17.750Z,1.90
2022-12-29T00:41:43.385Z,2.28
2022-12-29T00:45:50.084Z,1.77
2022-12-29T00:49:56.808Z,2.08
2022-12-29T00:54:03.616Z,0.90
2022-12-29T00:58:10.308Z,2.65
2022-12-29T01:02:17.074Z,0.50
2022-12-29T01:06:24.688Z,1.23
2022-12-29T01:10:31.430Z,4.43
2022-12-29T01:14:38.666Z,0.98
2022-12-29T01:18:45.507Z,2.03
2022-12-29T01:22:52.229Z,1.27
2022-12-29T01:26:59.060Z,1.35
2022-12-29T01:31:05.805Z,2.05
2022-12-29T01:35:12.550Z,2.95
2022-12-29T01:39:19.227Z,0.50
2022-12-29T01:43:46.431Z,1.98
2022-12-29T01:48:04.727Z,1.30
2022-12-29T01:52:11.749Z,0.70
2022-12-29T01:56:21.355Z,0.73
2022-12-29T02:00:28.060Z,0.20
2022-12-29T02:04:35.924Z,0.75
2022-12-29T02:08:44.092Z,0.20
2022-12-29T02:12:52.235Z,0.63
2022-12-29T02:17:02.028Z,0.70
2022-12-29T02:21:21.838Z,0.60
2022-12-29T02:25:34.229Z,0.60
2022-12-29T02:34:46.396Z,0.30
2022-12-29T02:39:14.246Z,2.03
2022-12-29T02:43:42.246Z,1.92
2022-12-29T02:47:57.450Z,1.30
2022-12-29T02:52:17.013Z,1.85
2022-12-29T02:56:23.680Z,0.32
2022-12-29T03:00:30.807Z,1.27
2022-12-29T03:04:42.697Z,3.47
2022-12-29T03:09:07.013Z,0.40
2022-12-29T03:14:04.369Z,1.98
2022-12-29T03:18:24.033Z,2.55
2022-12-29T03:22:37.472Z,1.52
2022-12-29T03:26:46.829Z,2.78
2022-12-29T03:30:54.092Z,1.17
2022-12-29T03:35:02.522Z,0.90
2022-12-29T03:39:13.117Z,2.92
2022-12-29T03:43:21.135Z,1.83
2022-12-29T03:47:27.964Z,1.42
2022-12-29T03:51:34.681Z,0.43
2022-12-29T03:55:41.381Z,1.75
2022-12-29T03:59:48.064Z,4.13
2022-12-29T04:03:54.777Z,2.90
2022-12-29T04:08:01.610Z,0.45
2022-12-29T04:12:08.264Z,0.15
2022-12-29T04:16:15.123Z,4.18
2022-12-29T04:20:40.347Z,1.13
2022-12-29T04:24:47.263Z,0.98
2022-12-29T04:28:54.020Z,2.10
2022-12-29T04:33:02.276Z,1.63
2022-12-29T04:37:09.034Z,2.58
2022-12-29T04:41:15.913Z,5.05
2022-12-29T04:45:24.291Z,2.45
2022-12-29T04:49:33.041Z,1.73
2022-12-29T04:53:39.853Z,2.75
2022-12-29T04:57:46.709Z,1.20
2022-12-29T05:01:53.551Z,1.20
2022-12-29T05:06:02.428Z,3.35
2022-12-29T05:10:09.936Z,7.68
2022-12-29T05:14:16.632Z,4.63
2022-12-29T05:18:25.457Z,2.67
2022-12-29T05:22:32.173Z,5.65
2022-12-29T05:26:39.943Z,6.55
2022-12-29T05:30:54.370Z,9.48
2022-12-29T05:35:02.425Z,4.25
2022-12-29T05:39:09.129Z,3.67
2022-12-29T05:43:15.825Z,6.40
2022-12-29T05:47:22.572Z,4.03
2022-12-29T05:51:29.422Z,2.05
2022-12-29T05:55:36.144Z,2.35
2022-12-29T05:59:42.827Z,3.67
2022-12-29T06:03:49.710Z,3.47
2022-12-29T06:07:56.502Z,8.82
2022-12-29T06:12:03.828Z,5.28
2022-12-29T06:16:10.790Z,3.63
2022-12-29T06:20:17.512Z,6.35
2022-12-29T06:24:24.249Z,3.20
2022-12-29T06:28:30.966Z,5.63
2022-12-29T06:32:37.660Z,3.45
2022-12-29T06:36:44.430Z,6.85
2022-12-29T06:40:51.227Z,4.35
2022-12-29T06:44:59.850Z,2.35
2022-12-29T06:49:07.744Z,6.57
2022-12-29T06:53:14.484Z,4.65
2022-12-29T06:57:22.185Z,11.98
2022-12-29T07:01:29.209Z,5.38
2022-12-29T07:05:35.963Z,5.65
2022-12-29T07:09:42.659Z,13.43
2022-12-29T07:13:49.419Z,7.55
2022-12-29T07:17:56.216Z,4.35
2022-12-29T07:22:02.972Z,12.05
2022-12-29T07:26:15.038Z,6.90
2022-12-29T07:30:21.770Z,6.18
2022-12-29T07:34:28.479Z,6.90
2022-12-29T07:38:35.157Z,4.43
2022-12-29T07:42:41.840Z,5.78
2022-12-29T07:46:53.767Z,9.43
2022-12-29T07:51:03.529Z,10.80
2022-12-29T07:55:10.206Z,3.53
2022-12-29T07:59:17.028Z,5.13
2022-12-29T08:03:24.087Z,5.35
2022-12-29T08:07:30.808Z,5.50
2022-12-29T08:11:37.811Z,6.38
2022-12-29T08:15:44.536Z,7.22
2022-12-29T08:19:51.252Z,3.67
2022-12-29T08:23:59.924Z,11.20
2022-12-29T08:28:06.625Z,9.50
2022-12-29T08:32:13.702Z,2.75
2022-12-29T08:36:20.663Z,9.23
2022-12-29T08:40:27.376Z,4.80
2022-12-29T08:44:34.043Z,2.60
2022-12-29T08:48:41.031Z,6.60
2022-12-29T08:52:47.720Z,5.38
2022-12-29T08:56:54.827Z,5.18
2022-12-29T09:01:01.495Z,5.85
2022-12-29T09:05:08.862Z,9.50
2022-12-29T09:09:15.656Z,5.72
2022-12-29T09:13:22.462Z,7.13
2022-12-29T09:17:45.360Z,11.15
2022-12-29T09:21:52.363Z,9.40
2022-12-29T09:25:59.336Z,9.50
2022-12-29T09:30:08.706Z,9.77
2022-12-29T09:34:16.249Z,10.10
2022-12-29T09:38:23.876Z,4.63
2022-12-29T09:42:40.241Z,10.30
2022-12-29T09:46:51.411Z,9.68
2022-12-29T09:51:03.090Z,5.68
2022-12-29T09:55:16.889Z,8.00
2022-12-29T09:59:35.144Z,10.75
2022-12-29T10:03:57.173Z,6.68
2022-12-29T10:08:06.794Z,8.93
2022-12-29T10:12:34.021Z,9.93
2022-12-29T10:16:58.580Z,5.45
2022-12-29T10:21:22.286Z,5.55
2022-12-29T10:25:35.559Z,8.25
2022-12-29T10:29:55.526Z,9.15
2022-12-29T10:34:08.871Z,9.60
2022-12-29T10:38:36.605Z,5.97
2022-12-29T10:42:50.361Z,5.78
2022-12-29T10:47:02.067Z,6.47
2022-12-29T10:51:12.138Z,4.00
2022-12-29T10:55:24.809Z,3.22
2022-12-29T10:59:34.337Z,5.75
2022-12-29T11:04:00.877Z,2.33
2022-12-29T11:08:20.943Z,7.65
2022-12-29T11:12:30.501Z,4.38
2022-12-29T11:16:37.946Z,6.63
2022-12-29T11:20:44.865Z,12.15
2022-12-29T11:24:53.812Z,8.65
2022-12-29T11:29:09.746Z,9.75
2022-12-29T11:33:18.486Z,10.27
2022-12-29T11:37:30.448Z,7.22
2022-12-29T11:41:37.173Z,8.70
2022-12-29T11:45:47.787Z,8.73
2022-12-29T11:49:58.962Z,11.55
2022-12-29T11:54:06.734Z,7.22
2022-12-29T11:58:16.735Z,5.10
2022-12-29T12:02:45.448Z,4.55
2022-12-29T12:07:14.713Z,7.50
2022-12-29T12:11:38.076Z,8.57
2022-12-29T12:15:56.172Z,11.55
2022-12-29T12:20:17.790Z,3.80
2022-12-29T12:24:44.463Z,7.70
2022-12-29T12:28:57.032Z,1.80
2022-12-29T12:33:13.202Z,2.67
2022-12-29T12:37:25.663Z,5.63
2022-12-29T12:46:40.664Z,5.78
2022-12-29T12:51:00.340Z,5.13
2022-12-29T12:55:45.661Z,6.13
2022-12-29T12:59:59.281Z,6.60
2022-12-29T13:04:05.914Z,8.02
2022-12-29T13:08:46.796Z,9.98
2022-12-29T13:12:59.786Z,9.75
2022-12-29T13:17:14.643Z,14.77
2022-12-29T13:21:35.075Z,11.40
2022-12-29T13:26:06.804Z,11.45
2022-12-29T13:30:22.828Z,8.50
2022-12-29T13:35:03.949Z,16.55
2022-12-29T13:39:21.627Z,20.83
2022-12-29T13:43:32.470Z,12.77
2022-12-29T13:47:49.330Z,13.95
2022-12-29T13:52:00.070Z,14.85
2022-12-29T13:56:24.923Z,12.40
2022-12-29T14:00:43.260Z,8.73
2022-12-29T14:04:59.834Z,7.82
2022-12-29T14:09:29.163Z,7.35
2022-12-29T14:13:43.161Z,9.27
2022-12-29T14:18:14.987Z,11.55
2022-12-29T14:22:32.749Z,9.93
2022-12-29T14:26:40.107Z,15.57
2022-12-29T14:30:55.577Z,6.13
2022-12-29T14:35:40.844Z,9.73
2022-12-29T14:39:47.732Z,12.30
2022-12-29T14:44:02.206Z,8.27
2022-12-29T14:48:32.573Z,9.18
2022-12-29T14:53:03.058Z,6.43
2022-12-29T14:57:51.857Z,1.53
2022-12-29T15:02:00.976Z,3.63
2022-12-29T15:06:24.063Z,6.38
2022-12-29T15:10:50.042Z,2.58
2022-12-29T15:15:01.681Z,4.32
2022-12-29T15:19:23.657Z,2.90
2022-12-29T15:23:34.411Z,2.17
2022-12-29T15:27:41.303Z,5.28
2022-12-29T15:31:50.328Z,2.95
2022-12-29T15:36:03.540Z,3.92
2022-12-29T15:40:33.030Z,5.93
2022-12-29T15:44:44.194Z,6.15
2022-12-29T15:48:51.572Z,4.22
2022-12-29T15:52:59.217Z,5.85
2022-12-29T15:57:27.269Z,5.82
2022-12-29T16:01:36.374Z,6.40
2022-12-29T16:05:52.438Z,6.60
2022-12-29T16:10:01.736Z,5.65
2022-12-29T16:14:17.521Z,7.07
2022-12-29T16:18:28.601Z,9.18
2022-12-29T16:22:39.600Z,8.23
2022-12-29T16:27:02.987Z,3.58
2022-12-29T16:31:25.014Z,5.63
2022-12-29T16:35:47.665Z,6.97
2022-12-29T16:44:33.538Z,8.40
2022-12-29T16:48:54.873Z,8.65
2022-12-29T16:53:04.272Z,10.50
2022-12-29T16:57:11.990Z,5.82
2022-12-29T17:01:21.300Z,3.40
2022-12-29T17:05:28.062Z,5.05
2022-12-29T17:09:34.725Z,6.78
2022-12-29T17:13:41.720Z,2.83
2022-12-29T17:17:57.558Z,5.97
2022-12-29T17:22:12.653Z,5.70
2022-12-29T17:26:19.339Z,8.93
2022-12-29T17:30:33.128Z,6.25
2022-12-29T17:34:41.685Z,8.50
2022-12-29T17:38:48.345Z,6.95
2022-12-29T17:42:57.519Z,5.50
2022-12-29T17:47:04.263Z,3.78
2022-12-29T17:51:11.903Z,5.18
2022-12-29T17:55:20.863Z,5.82
2022-12-29T17:59:27.580Z,3.20
2022-12-29T18:03:36.802Z,5.78
2022-12-29T18:07:43.697Z,7.03
2022-12-29T18:11:50.420Z,4.10
2022-12-29T18:15:57.646Z,5.50
2022-12-29T18:20:04.690Z,8.45
2022-12-29T18:24:15.230Z,6.18
2022-12-29T18:28:23.581Z,9.60
2022-12-29T18:32:30.266Z,8.98
2022-12-29T18:36:36.944Z,5.20
2022-12-29T18:40:43.677Z,11.25
2022-12-29T18:44:50.631Z,6.43
2022-12-29T18:48:57.359Z,10.30
2022-12-29T18:53:04.443Z,10.80
2022-12-29T18:57:11.195Z,6.95
2022-12-29T19:01:24.155Z,5.82
2022-12-29T19:05:36.628Z,5.03
2022-12-29T19:09:43.392Z,4.38
2022-12-29T19:13:50.069Z,9.93
2022-12-29T19:18:32.985Z,12.63
2022-12-29T19:22:25.517Z,7.03
2022-12-29T19:26:36.457Z,7.22
2022-12-29T19:30:44.619Z,10.30
2022-12-29T19:34:53.813Z,11.50
2022-12-29T19:39:00.693Z,6.60
2022-12-29T19:43:07.386Z,12.88
2022-12-29T19:47:14.386Z,11.68
2022-12-29T19:51:21.130Z,11.68
2022-12-29T19:55:27.802Z,16.35
2022-12-29T19:59:34.525Z,11.32
2022-12-29T20:03:41.861Z,11.45
2022-12-29T20:07:48.613Z,9.20
2022-12-29T20:11:55.311Z,22.35
2022-12-29T20:16:07.756Z,17.25
2022-12-29T20:24:21.242Z,12.25
2022-12-29T20:28:28.521Z,18.45
2022-12-29T20:32:35.793Z,14.27
2022-12-29T20:36:46.200Z,11.10
2022-12-29T20:40:52.876Z,11.32
2022-12-29T20:45:01.705Z,12.38
2022-12-29T20:49:08.807Z,18.23
2022-12-29T20:53:15.526Z,12.02
2022-12-29T20:57:22.175Z,10.75
2022-12-29T21:01:29.436Z,8.18
2022-12-29T21:05:38.057Z,11.20
2022-12-29T21:09:44.849Z,21.50
2022-12-29T21:13:52.992Z,12.02
2022-12-29T21:17:59.717Z,19.23
2022-12-29T21:22:06.424Z,14.20
2022-12-29T21:26:16.195Z,20.80
2022-12-29T21:30:22.883Z,12.02
2022-12-29T21:34:30.322Z,10.32
2022-12-29T21:38:37.028Z,10.80
2022-12-29T21:42:43.730Z,11.32
2022-12-29T21:46:50.436Z,21.33
2022-12-29T21:51:30.565Z,11.82
2022-12-29T21:55:37.695Z,26.48
2022-12-29T22:00:02.919Z,20.00
2022-12-29T22:04:31.407Z,14.05
2022-12-29T22:08:56.893Z,13.20
2022-12-29T22:13:03.706Z,8.45
2022-12-29T22:17:14.179Z,12.90
2022-12-29T22:21:21.229Z,11.45
2022-12-29T22:25:28.165Z,18.65
2022-12-29T22:29:35.052Z,13.60
2022-12-29T22:33:45.512Z,12.93
2022-12-29T22:37:52.225Z,15.25
2022-12-29T22:41:58.883Z,16.05
2022-12-29T22:46:07.593Z,22.75
2022-12-29T22:50:14.334Z,11.68
2022-12-29T22:54:21.567Z,16.33
2022-12-29T22:58:28.283Z,13.15
2022-12-29T23:02:35.543Z,11.70
2022-12-29T23:06:42.418Z,11.75
2022-12-29T23:10:49.096Z,9.10
2022-12-29T23:14:55.762Z,8.05
2022-12-29T23:19:02.459Z,16.67
2022-12-29T23:23:09.214Z,8.90
2022-12-29T23:27:15.917Z,14.50
2022-12-29T23:31:23.766Z,13.15
2022-12-29T23:35:30.494Z,8.90
2022-12-29T23:39:37.135Z,13.65
2022-12-29T23:43:43.807Z,21.17
2022-12-29T23:47:50.487Z,10.18
2022-12-29T23:51:57.187Z,8.55
2022-12-29T23:56:05.242Z,8.52
